Latest Coastal Weather Observations for Legendre Island

IDW60701

Issued at 9:43 pm WST Monday 4 May 2026 (issued every 10 minutes, with the page automatically refreshed every 10 minutes)

About coastal observations | Map of coastal stations | Coastal observations for WA | Marine services | Other Formats
Station Details ID: 004095 Name: LEGENDRE ISLAND Lat: -20.36 Lon: 116.84 Height: 29.0 m
Data from the previous 72 hours. | See also: Recent months at Legendre Island
Date/Time
WST
Wind Sea
Height
m
Swell Vis
km
Cloud Weather Temp
°C
Press
MSL
hPa
Rain since
9am
mm
Dir  Spd
kts
Gust
kts
Height
m
Period
s
Dir
04/09:30pm NE 11 12 - - - - - - - 28.1 1015.7 -
04/09:00pm NE 11 13 - - - - - - - 28.0 1015.8 -
04/08:30pm NE 10 11 - - - - - - - 28.0 1015.9 -
04/08:00pm NE 10 12 - - - - - - - 27.9 1015.6 -
04/07:30pm NE 8 9 - - - - - - - 27.9 1015.4 -
04/07:00pm NE 8 9 - - - - - - - 27.9 1015.1 -
04/06:30pm NE 9 10 - - - - - - - 28.0 1014.8 -
04/06:00pm ENE 11 12 - - - - - - - 28.5 1014.7 -
04/05:30pm ENE 11 13 - - - - - - - 28.8 1014.5 -
04/05:00pm ENE 12 15 - - - - - - - 29.0 1014.4 -
04/04:30pm ENE 14 16 - - - - - - - 29.2 1014.2 -
04/04:00pm ENE 16 18 - - - - - - - 29.4 1014.2 -
04/03:30pm E 16 19 - - - - - - - 29.6 1014.1 -
04/03:00pm E 18 21 - - - - - - - 29.5 1014.1 -
04/02:30pm E 20 23 - - - - - - - 29.4 1014.4 -
04/02:00pm E 20 23 - - - - - - - 29.3 1014.6 -
04/01:30pm E 20 23 - - - - - - - 28.9 1014.9 -
04/01:00pm E 21 24 - - - - - - - 28.6 1015.4 -
04/12:30pm E 22 25 - - - - - - - 28.3 1015.9 -
04/12:00pm E 21 25 - - - - - - - 28.0 1016.4 -
04/11:30am E 22 26 - - - - - - - 28.0 1016.8 -
04/11:00am E 23 28 - - - - - - - 27.6 1017.1 -
04/10:30am E 24 28 - - - - - - - 27.5 1017.4 -
04/10:00am E 25 29 - - - - - - - 27.1 1017.6 -
04/09:30am ESE 24 29 - - - - - - - 26.9 1017.5 -
04/09:00am E 23 26 - - - - - - - 26.7 1017.5 -
04/08:30am ESE 23 28 - - - - - - - 26.6 1017.2 -
04/08:00am ESE 22 27 - - - - - - - 26.4 1017.0 -
04/07:30am ESE 22 26 - - - - - - - 26.4 1017.0 -
04/07:00am ESE 22 25 - - - - - - - 26.1 1016.8 -
04/06:30am E 24 27 - - - - - - - 26.5 1016.2 -
04/06:00am E 24 27 - - - - - - - 26.7 1015.8 -
04/05:30am E 24 28 - - - - - - - 26.8 1015.6 -
04/05:00am E 24 29 - - - - - - - 27.1 1015.4 -
04/04:30am E 22 26 - - - - - - - 27.5 1015.3 -
04/04:00am E 22 26 - - - - - - - 27.9 1015.3 -
04/03:30am ESE 12 20 - - - - - - - 26.0 1015.4 -
04/03:00am SE 11 13 - - - - - - - 26.1 1015.4 -
04/02:30am E 9 10 - - - - - - - 27.5 1015.1 -
04/02:00am N 5 6 - - - - - - - 27.3 1015.0 -
04/01:30am N 3 4 - - - - - - - 27.3 1014.9 -
04/01:00am N 3 5 - - - - - - - 27.4 1015.2 -
04/12:30am N 3 4 - - - - - - - 27.7 1015.1 -
04/12:00am N 3 4 - - - - - - - 27.4 1015.2 -
 
Date/Time
WST
Wind Sea
Height
m
Swell Vis
km
Cloud Weather Temp
°C
Press
MSL
hPa
Rain since
9am
mm
Dir  Spd
kts
Gust
kts
Height
m
Period
s
Dir
03/11:30pm N 4 6 - - - - - - - 27.6 1015.3 -
03/11:00pm N 7 8 - - - - - - - 27.9 1015.2 -
03/10:30pm N 6 8 - - - - - - - 27.7 1015.2 -
03/10:00pm N 7 8 - - - - - - - 27.7 1015.3 -
03/09:30pm N 7 8 - - - - - - - 27.7 1015.4 -
03/09:00pm N 7 9 - - - - - - - 27.8 1015.3 -
03/08:30pm NNE 9 10 - - - - - - - 27.8 1015.1 -
03/08:00pm NNE 7 9 - - - - - - - 27.7 1014.7 -
03/07:30pm NNE 7 9 - - - - - - - 27.6 1014.4 -
03/07:00pm NNE 8 9 - - - - - - - 27.6 1014.2 -
03/06:30pm NE 8 9 - - - - - - - 27.7 1013.8 -
03/06:00pm ENE 7 9 - - - - - - - 27.6 1013.4 -
03/05:30pm ENE 8 9 - - - - - - - 27.8 1013.0 -
03/05:00pm ENE 10 12 - - - - - - - 28.1 1012.9 -
03/04:30pm E 10 12 - - - - - - - 28.4 1012.9 -
03/04:00pm E 12 14 - - - - - - - 28.7 1012.9 -
03/03:30pm E 12 15 - - - - - - - 28.9 1013.0 -
03/03:00pm ENE 13 16 - - - - - - - 28.8 1013.2 -
03/02:30pm ENE 15 18 - - - - - - - 28.6 1013.1 -
03/02:00pm ENE 16 19 - - - - - - - 28.8 1013.4 -
03/01:30pm E 17 21 - - - - - - - 28.4 1013.6 -
03/01:00pm E 17 20 - - - - - - - 28.3 1014.0 -
03/12:30pm E 18 21 - - - - - - - 28.0 1014.3 -
03/12:00pm E 19 22 - - - - - - - 27.6 1014.7 -
03/11:30am E 21 26 - - - - - - - 27.5 1015.0 -
03/11:00am E 23 27 - - - - - - - 27.2 1015.3 -
03/10:30am E 23 27 - - - - - - - 26.8 1015.6 -
03/10:00am E 23 28 - - - - - - - 26.8 1015.7 -
03/09:30am E 26 31 - - - - - - - 26.4 1015.6 -
03/09:00am E 25 29 - - - - - - - 26.6 1015.6 -
03/08:30am E 24 29 - - - - - - - 26.6 1015.4 -
03/08:00am E 24 29 - - - - - - - 26.9 1015.0 -
03/07:30am E 23 29 - - - - - - - 26.7 1014.6 -
03/07:00am E 25 30 - - - - - - - 26.8 1014.0 -
03/06:30am E 24 27 - - - - - - - 26.9 1013.6 -
03/06:00am ENE 23 27 - - - - - - - 27.4 1013.3 -
03/05:30am ENE 24 27 - - - - - - - 27.5 1012.9 -
03/05:00am ENE 21 25 - - - - - - - 27.6 1012.8 -
03/04:30am E 15 22 - - - - - - - 27.9 1012.7 -
03/04:00am ENE 9 11 - - - - - - - 28.1 1012.8 -
03/03:30am ENE 7 8 - - - - - - - 28.0 1012.8 -
03/03:00am ENE 5 7 - - - - - - - 28.0 1012.7 -
03/02:30am NNW 4 5 - - - - - - - 28.0 1012.8 -
03/02:00am NNW 5 7 - - - - - - - 28.0 1012.8 -
03/01:30am N 8 10 - - - - - - - 28.0 1012.5 -
03/01:00am N 9 10 - - - - - - - 28.0 1012.6 -
03/12:30am N 9 11 - - - - - - - 28.0 1012.7 -
03/12:00am N 9 11 - - - - - - - 28.0 1012.8 -
 
Date/Time
WST
Wind Sea
Height
m
Swell Vis
km
Cloud Weather Temp
°C
Press
MSL
hPa
Rain since
9am
mm
Dir  Spd
kts
Gust
kts
Height
m
Period
s
Dir
02/11:30pm N 9 10 - - - - - - - 27.9 1013.0 -
02/11:00pm N 9 11 - - - - - - - 28.0 1012.9 -
02/10:30pm N 9 11 - - - - - - - 27.9 1013.0 -
02/10:00pm N 9 11 - - - - - - - 27.9 1013.0 -
02/09:30pm N 9 11 - - - - - - - 27.8 1013.0 -
02/09:00pm N 9 11 - - - - - - - 27.9 1012.9 -
02/08:30pm N 9 10 - - - - - - - 27.9 1012.7 -
02/08:00pm N 9 9 - - - - - - - 27.8 1012.4 -
02/07:30pm N 9 10 - - - - - - - 27.9 1012.1 -
02/07:00pm N 8 10 - - - - - - - 27.8 1011.6 -
02/06:30pm N 7 8 - - - - - - - 27.9 1011.5 -
02/06:00pm N 7 8 - - - - - - - 27.9 1011.3 -
02/05:30pm NNE 6 8 - - - - - - - 28.2 1011.1 -
02/05:00pm N 7 8 - - - - - - - 28.6 1010.9 -
02/04:30pm N 7 9 - - - - - - - 29.0 1010.8 -
02/04:00pm NNE 7 9 - - - - - - - 29.5 1010.8 -
02/03:30pm NE 7 9 - - - - - - - 29.8 1010.8 -
02/03:00pm NE 8 10 - - - - - - - 29.9 1010.9 -
02/02:30pm NE 7 9 - - - - - - - 29.9 1011.0 -
02/02:00pm ENE 8 10 - - - - - - - 30.5 1011.4 -
02/01:30pm ENE 8 10 - - - - - - - 30.6 1011.5 -
02/01:00pm E 10 12 - - - - - - - 30.6 1011.8 -
02/12:30pm E 12 16 - - - - - - - 30.4 1011.9 -
02/12:00pm E 12 14 - - - - - - - 30.1 1012.2 -
02/11:30am E 11 12 - - - - - - - 30.2 1012.7 -
02/11:00am ESE 12 14 - - - - - - - 30.4 1013.1 -
02/10:30am ESE 13 16 - - - - - - - 30.7 1013.1 -
02/10:00am E 6 7 - - - - - - - 31.0 1013.4 -
02/09:30am ENE 6 8 - - - - - - - 30.3 1013.2 -
02/09:00am W 5 6 - - - - - - - 29.9 1012.8 -
02/08:30am W 5 7 - - - - - - - 29.8 1012.9 -
02/08:00am W 4 5 - - - - - - - 29.1 1012.5 -
02/07:30am W 3 5 - - - - - - - 27.1 1011.9 -
02/07:00am W 2 2 - - - - - - - 26.9 1011.4 -
02/06:30am CALM 0 0 - - - - - - - 26.4 1011.1 -
02/06:00am W 1 1 - - - - - - - 26.9 1010.9 -
02/05:30am W 2 3 - - - - - - - 26.8 1010.7 -
02/05:00am W 2 3 - - - - - - - 26.8 1010.6 -
02/04:30am W 5 6 - - - - - - - 26.6 1010.4 -
02/04:00am W 6 7 - - - - - - - 26.6 1010.3 -
02/03:30am WSW 7 9 - - - - - - - 26.4 1010.4 -
02/03:00am WSW 10 12 - - - - - - - 26.9 1010.5 -
02/02:30am W 10 11 - - - - - - - 26.9 1010.6 -
02/02:00am WSW 10 12 - - - - - - - 26.8 1010.9 -
02/01:30am W 11 13 - - - - - - - 26.8 1011.1 -
02/01:00am W 12 15 - - - - - - - 26.8 1011.1 -
02/12:30am WSW 12 14 - - - - - - - 26.7 1011.4 -
02/12:00am WSW 11 14 - - - - - - - 26.9 1011.7 -
 
Date/Time
WST
Wind Sea
Height
m
Swell Vis
km
Cloud Weather Temp
°C
Press
MSL
hPa
Rain since
9am
mm
Dir  Spd
kts
Gust
kts
Height
m
Period
s
Dir
01/11:30pm WSW 11 13 - - - - - - - 26.9 1011.8 -
01/11:00pm W 11 13 - - - - - - - 26.9 1012.0 -
01/10:30pm WSW 10 12 - - - - - - - 27.2 1012.3 -
01/10:00pm WSW 10 13 - - - - - - - 27.3 1012.4 -

Other formats

Comma delimited format used in spreadsheet applications
http://www.bom.gov.au/fwo/IDW60701/IDW60701.94307.axf

JavaScript Object Notation format (JSON) in row-major order
http://www.bom.gov.au/fwo/IDW60701/IDW60701.94307.json

Data quality

Most of these data are generated automatically and are frequently updated. Quality checks on data are not normally performed. It is possible for incorrect values to appear. Refer to information at About Latest Weather Observations and please check the disclaimer before using these data.